Wetterdaten: Woche 04.11.19 - 10.11.19 (KW45)
Datum Zeit Temp. Aussen Temp. o. S. Temp +5cm Feuchte Auss Luftdruck Regen Sonnenschein Regendauer Solar Windben Empfang
04.11.2019 00:00 10,6 C 9,1 C 8,9 C 98 % 987,7 hPa 0,4 l/m 0,00 h 0,27 h 0 W/m 12,9 km/h (3 Bft) 96,02 %
04.11.2019 01:00 9,9 C 8,7 C 8,3 C 98 % 988,4 hPa 0,0 l/m 0,00 h 0,03 h 0 W/m 8,4 km/h (2 Bft) 95,72 %
04.11.2019 02:00 9,9 C 8,9 C 8,3 C 98 % 988,5 hPa 0,0 l/m 0,00 h 0,00 h 0 W/m 12,6 km/h (3 Bft) 97,16 %
04.11.2019 03:00 9,6 C 8,4 C 7,9 C 98 % 988,2 hPa 0,0 l/m 0,00 h 0,00 h 0 W/m 5,3 km/h (1 Bft) 98,79 %
04.11.2019 04:00 9,4 C 8,5 C 8,0 C 98 % 988,2 hPa 0,0 l/m 0,00 h 0,00 h 0 W/m 8,0 km/h (2 Bft) 95,06 %
04.11.2019 05:00 9,9 C 8,9 C 8,7 C 99 % 988,5 hPa 0,6 l/m 0,00 h 0,30 h 0 W/m 17,6 km/h (3 Bft) 99,57 %
04.11.2019 06:00 10,1 C 8,8 C 8,7 C 99 % 988,5 hPa 0,4 l/m 0,00 h 0,27 h 0 W/m 15,0 km/h (3 Bft) 97,72 %
04.11.2019 07:00 9,5 C 8,1 C 7,9 C 98 % 988,6 hPa 0,0 l/m 0,00 h 0,00 h 10 W/m 7,8 km/h (2 Bft) 95,80 %
04.11.2019 08:00 9,0 C 8,2 C 7,7 C 98 % 988,6 hPa 0,0 l/m 0,00 h 0,00 h 34 W/m 5,6 km/h (1 Bft) 98,50 %
04.11.2019 09:00 9,6 C 10,3 C 8,7 C 99 % 988,7 hPa 0,0 l/m 0,53 h 0,07 h 188 W/m 8,9 km/h (2 Bft) 96,72 %
04.11.2019 10:00 10,5 C 11,1 C 9,1 C 96 % 988,6 hPa 0,0 l/m 0,10 h 0,00 h 114 W/m 12,8 km/h (3 Bft) 96,44 %
04.11.2019 11:00 11,5 C 12,3 C 11,0 C 91 % 988,5 hPa 0,0 l/m 0,23 h 0,00 h 164 W/m 16,5 km/h (3 Bft) 98,36 %
04.11.2019 12:00 12,1 C 12,0 C 10,9 C 88 % 988,2 hPa 0,0 l/m 0,00 h 0,00 h 105 W/m 10,4 km/h (2 Bft) 98,86 %
04.11.2019 13:00 12,0 C 10,7 C 10,2 C 90 % 988,4 hPa 0,4 l/m 0,00 h 0,63 h 62 W/m 14,5 km/h (3 Bft) 95,66 %
04.11.2019 14:00 11,2 C 9,5 C 9,4 C 94 % 988,7 hPa 2,2 l/m 0,00 h 1,00 h 43 W/m 14,6 km/h (3 Bft) 98,23 %
04.11.2019 15:00 11,0 C 10,2 C 9,7 C 97 % 989,1 hPa 0,6 l/m 0,23 h 0,43 h 69 W/m 8,7 km/h (2 Bft) 99,71 %
04.11.2019 16:00 11,1 C 9,8 C 9,3 C 98 % 989,3 hPa 0,0 l/m 0,00 h 0,00 h 20 W/m 0,1 km/h (0 Bft) 95,07 %
04.11.2019 17:00 10,5 C 8,9 C 8,5 C 98 % 989,7 hPa 0,0 l/m 0,00 h 0,00 h 4 W/m 0,2 km/h (0 Bft) 98,79 %
04.11.2019 18:00 9,6 C 8,2 C 7,8 C 98 % 990,2 hPa 0,0 l/m 0,00 h 0,00 h 0 W/m 0,1 km/h (0 Bft) 98,51 %
04.11.2019 19:00 9,4 C 8,7 C 8,2 C 98 % 990,3 hPa 0,0 l/m 0,00 h 0,00 h 0 W/m 3,8 km/h (1 Bft) 95,80 %
04.11.2019 20:00 9,4 C 8,8 C 7,8 C 98 % 990,5 hPa 0,0 l/m 0,00 h 0,07 h 0 W/m 6,2 km/h (2 Bft) 98,44 %
04.11.2019 21:00 9,3 C 8,8 C 7,8 C 98 % 990,9 hPa 0,0 l/m 0,00 h 0,00 h 0 W/m 6,3 km/h (2 Bft) 96,15 %
04.11.2019 22:00 9,1 C 8,3 C 7,2 C 97 % 991,2 hPa 0,0 l/m 0,00 h 0,00 h 0 W/m 5,2 km/h (1 Bft) 97,79 %
04.11.2019 23:00 9,0 C 8,2 C 7,2 C 97 % 991,6 hPa 0,2 l/m 0,00 h 0,13 h 0 W/m 7,4 km/h (2 Bft) 97,86 %
05.11.2019 00:00 9,1 C 7,8 C 7,2 C 97 % 992,2 hPa 0,0 l/m 0,00 h 0,13 h 0 W/m 3,0 km/h (1 Bft) 96,16 %
05.11.2019 01:00 8,9 C 8,0 C 7,2 C 97 % 992,8 hPa 0,0 l/m 0,00 h 0,00 h 0 W/m 7,7 km/h (2 Bft) 99,51 %
05.11.2019 02:00 9,0 C 8,3 C 7,4 C 97 % 993,1 hPa 0,0 l/m 0,00 h 0,20 h 0 W/m 8,6 km/h (2 Bft) 97,15 %
05.11.2019 03:00 9,2 C 8,2 C 7,8 C 97 % 993,5 hPa 0,2 l/m 0,00 h 0,20 h 0 W/m 8,4 km/h (2 Bft) 96,08 %
05.11.2019 04:00 9,2 C 8,1 C 7,6 C 97 % 993,7 hPa 0,0 l/m 0,00 h 0,00 h 0 W/m 7,8 km/h (2 Bft) 98,02 %
05.11.2019 05:00 8,9 C 8,2 C 7,2 C 97 % 994,1 hPa 0,0 l/m 0,00 h 0,23 h 0 W/m 12,6 km/h (3 Bft) 96,67 %
05.11.2019 06:00 8,7 C 7,2 C 7,2 C 97 % 994,5 hPa 0,2 l/m 0,00 h 0,27 h 0 W/m 7,0 km/h (2 Bft) 95,22 %
05.11.2019 07:00 8,6 C 7,3 C 7,2 C 98 % 995,0 hPa 0,0 l/m 0,00 h 0,10 h 5 W/m 3,0 km/h (1 Bft) 99,65 %
05.11.2019 08:00 8,7 C 7,8 C 7,3 C 98 % 995,7 hPa 0,0 l/m 0,00 h 0,47 h 31 W/m 5,8 km/h (2 Bft) 94,95 %
05.11.2019 09:00 9,0 C 8,1 C 7,8 C 98 % 996,2 hPa 0,2 l/m 0,00 h 0,73 h 65 W/m 7,5 km/h (2 Bft) 96,65 %
05.11.2019 10:00 9,2 C 8,3 C 7,8 C 97 % 996,8 hPa 0,0 l/m 0,00 h 0,77 h 72 W/m 7,7 km/h (2 Bft) 98,73 %
05.11.2019 11:00 9,4 C 8,8 C 8,1 C 96 % 997,2 hPa 0,2 l/m 0,27 h 0,47 h 123 W/m 5,8 km/h (2 Bft) 97,42 %
05.11.2019 12:00 10,1 C 9,5 C 8,8 C 95 % 997,4 hPa 0,0 l/m 0,00 h 0,03 h 90 W/m 5,6 km/h (1 Bft) 96,86 %
05.11.2019 13:00 10,5 C 9,7 C 8,9 C 93 % 997,4 hPa 0,0 l/m 0,00 h 0,00 h 63 W/m 1,0 km/h (0 Bft) 97,86 %
05.11.2019 14:00 10,7 C 9,9 C 8,9 C 93 % 997,3 hPa 0,0 l/m 0,00 h 0,00 h 85 W/m 2,2 km/h (1 Bft) 99,43 %
05.11.2019 15:00 10,5 C 9,9 C 8,7 C 92 % 997,5 hPa 0,0 l/m 0,00 h 0,00 h 67 W/m 0,3 km/h (0 Bft) 94,80 %
05.11.2019 16:00 10,0 C 8,3 C 7,4 C 92 % 997,9 hPa 0,0 l/m 0,00 h 0,00 h 21 W/m 0,0 km/h (0 Bft) 99,00 %
05.11.2019 17:00 8,9 C 6,9 C 6,7 C 93 % 998,2 hPa 0,0 l/m 0,00 h 0,00 h 0 W/m 0,0 km/h (0 Bft) 98,79 %
05.11.2019 18:00 8,3 C 6,9 C 6,6 C 94 % 998,6 hPa 0,0 l/m 0,00 h 0,00 h 0 W/m 0,0 km/h (0 Bft) 95,13 %
05.11.2019 19:00 8,0 C 7,0 C 6,7 C 94 % 999,0 hPa 0,0 l/m 0,00 h 0,00 h 0 W/m 0,0 km/h (0 Bft) 98,22 %
05.11.2019 20:00 8,2 C 7,6 C 7,2 C 96 % 999,2 hPa 0,0 l/m 0,00 h 0,00 h 0 W/m 0,0 km/h (0 Bft) 97,70 %
05.11.2019 21:00 8,4 C 7,8 C 7,2 C 97 % 999,4 hPa 0,0 l/m 0,00 h 0,00 h 0 W/m 0,1 km/h (0 Bft) 97,28 %
05.11.2019 22:00 8,6 C 7,7 C 7,1 C 97 % 999,6 hPa 0,0 l/m 0,00 h 0,00 h 0 W/m 0,6 km/h (0 Bft) 96,24 %
05.11.2019 23:00 8,3 C 7,1 C 6,7 C 97 % 999,8 hPa 0,0 l/m 0,00 h 0,20 h 0 W/m 0,0 km/h (0 Bft) 96,66 %
06.11.2019 00:00 8,3 C 7,4 C 7,2 C 98 % 1000,1 hPa 0,0 l/m 0,00 h 0,03 h 0 W/m 1,2 km/h (1 Bft) 97,42 %
06.11.2019 01:00 8,3 C 7,6 C 7,2 C 98 % 1000,3 hPa 0,0 l/m 0,00 h 0,00 h 0 W/m 2,0 km/h (1 Bft) 97,04 %
06.11.2019 02:00 8,3 C 7,6 C 7,2 C 98 % 1000,4 hPa 0,0 l/m 0,00 h 0,00 h 0 W/m 0,3 km/h (0 Bft) 94,78 %
06.11.2019 03:00 8,2 C 7,2 C 7,2 C 98 % 1000,2 hPa 0,0 l/m 0,00 h 0,17 h 0 W/m 1,8 km/h (1 Bft) 97,92 %
06.11.2019 04:00 8,3 C 7,2 C 7,2 C 99 % 1000,4 hPa 0,8 l/m 0,00 h 1,00 h 0 W/m 2,8 km/h (1 Bft) 96,80 %
06.11.2019 05:00 8,3 C 7,2 C 7,2 C 99 % 1000,6 hPa 0,6 l/m 0,00 h 1,00 h 0 W/m 3,4 km/h (1 Bft) 96,72 %
06.11.2019 06:00 8,3 C 7,2 C 7,2 C 99 % 1000,7 hPa 0,8 l/m 0,00 h 1,00 h 0 W/m 1,9 km/h (1 Bft) 99,63 %
06.11.2019 07:00 8,3 C 7,3 C 7,2 C 99 % 1001,2 hPa 0,6 l/m 0,00 h 1,00 h 5 W/m 0,0 km/h (0 Bft) 96,08 %
06.11.2019 08:00 8,5 C 7,8 C 7,4 C 100 % 1001,9 hPa 0,2 l/m 0,00 h 0,73 h 12 W/m 0,0 km/h (0 Bft) 95,32 %
06.11.2019 09:00 8,9 C 8,5 C 8,1 C 100 % 1002,5 hPa 0,0 l/m 0,00 h 0,00 h 74 W/m 1,9 km/h (1 Bft) 98,86 %
06.11.2019 10:00 9,2 C 9,0 C 8,3 C 100 % 1002,8 hPa 0,0 l/m 0,00 h 0,00 h 103 W/m 3,1 km/h (1 Bft) 97,80 %
06.11.2019 11:00 9,2 C 9,1 C 8,3 C 100 % 1003,0 hPa 0,0 l/m 0,00 h 0,00 h 95 W/m 2,2 km/h (1 Bft) 95,94 %
06.11.2019 12:00 9,4 C 10,1 C 8,8 C 100 % 1003,0 hPa 0,0 l/m 0,00 h 0,07 h 115 W/m 2,1 km/h (1 Bft) 98,31 %
06.11.2019 13:00 9,1 C 8,6 C 7,9 C 99 % 1003,3 hPa 0,0 l/m 0,00 h 0,03 h 73 W/m 2,1 km/h (1 Bft) 98,36 %
06.11.2019 14:00 9,4 C 9,5 C 8,3 C 99 % 1003,3 hPa 0,0 l/m 0,00 h 0,00 h 74 W/m 2,7 km/h (1 Bft) 95,87 %
06.11.2019 15:00 9,1 C 9,1 C 7,9 C 97 % 1003,4 hPa 0,0 l/m 0,00 h 0,00 h 56 W/m 1,4 km/h (1 Bft) 98,36 %
06.11.2019 16:00 9,0 C 8,1 C 7,2 C 96 % 1003,5 hPa 0,0 l/m 0,10 h 0,00 h 21 W/m 0,0 km/h (0 Bft) 97,72 %
06.11.2019 17:00 8,2 C 6,4 C 5,8 C 94 % 1003,6 hPa 0,0 l/m 0,00 h 0,00 h 0 W/m 0,0 km/h (0 Bft) 96,01 %
06.11.2019 18:00 7,5 C 5,9 C 5,5 C 94 % 1003,7 hPa 0,0 l/m 0,00 h 0,00 h 0 W/m 0,0 km/h (0 Bft) 97,59 %
06.11.2019 19:00 7,2 C 6,4 C 6,0 C 95 % 1003,7 hPa 0,0 l/m 0,00 h 0,00 h 0 W/m 0,0 km/h (0 Bft) 98,01 %
06.11.2019 20:00 7,3 C 6,2 C 5,9 C 96 % 1003,5 hPa 0,0 l/m 0,00 h 0,00 h 0 W/m 0,1 km/h (0 Bft) 95,19 %
06.11.2019 21:00 7,3 C 6,6 C 6,1 C 97 % 1003,5 hPa 0,0 l/m 0,00 h 0,00 h 0 W/m 0,4 km/h (0 Bft) 99,33 %
06.11.2019 22:00 7,6 C 6,9 C 6,7 C 98 % 1003,3 hPa 0,0 l/m 0,00 h 0,00 h 0 W/m 2,0 km/h (1 Bft) 96,51 %
06.11.2019 23:00 7,7 C 6,8 C 6,7 C 98 % 1002,7 hPa 0,0 l/m 0,00 h 0,03 h 0 W/m 3,1 km/h (1 Bft) 97,44 %
07.11.2019 00:00 7,6 C 7,0 C 6,7 C 99 % 1002,1 hPa 0,0 l/m 0,00 h 0,00 h 0 W/m 9,5 km/h (2 Bft) 98,22 %
07.11.2019 01:00 7,6 C 7,0 C 6,6 C 99 % 1001,6 hPa 0,2 l/m 0,00 h 0,17 h 0 W/m 11,4 km/h (2 Bft) 96,96 %
07.11.2019 02:00 7,4 C 6,4 C 6,0 C 99 % 1001,3 hPa 0,0 l/m 0,00 h 0,00 h 0 W/m 10,7 km/h (2 Bft) 98,17 %
07.11.2019 03:00 7,2 C 6,2 C 5,9 C 99 % 1000,5 hPa 0,0 l/m 0,00 h 0,00 h 0 W/m 8,8 km/h (2 Bft) 96,79 %
07.11.2019 04:00 7,4 C 6,7 C 6,6 C 99 % 999,9 hPa 0,0 l/m 0,00 h 0,00 h 0 W/m 11,0 km/h (2 Bft) 97,58 %
07.11.2019 05:00 7,6 C 6,9 C 6,7 C 99 % 999,3 hPa 0,0 l/m 0,00 h 0,10 h 0 W/m 11,5 km/h (2 Bft) 98,72 %
07.11.2019 06:00 7,7 C 7,2 C 6,7 C 99 % 998,7 hPa 0,0 l/m 0,00 h 0,10 h 0 W/m 13,1 km/h (3 Bft) 95,30 %
07.11.2019 07:00 7,9 C 7,2 C 6,8 C 99 % 998,2 hPa 0,0 l/m 0,00 h 0,37 h 4 W/m 17,4 km/h (3 Bft) 97,26 %
07.11.2019 08:00 8,3 C 8,0 C 7,5 C 99 % 997,9 hPa 0,0 l/m 0,00 h 0,00 h 24 W/m 19,9 km/h (4 Bft) 96,81 %
07.11.2019 09:00 8,9 C 9,1 C 8,3 C 97 % 997,3 hPa 0,0 l/m 0,20 h 0,00 h 88 W/m 23,7 km/h (4 Bft) 97,71 %
07.11.2019 10:00 9,8 C 10,2 C 9,4 C 93 % 996,9 hPa 0,0 l/m 0,27 h 0,00 h 131 W/m 25,4 km/h (4 Bft) 96,69 %
07.11.2019 11:00 9,9 C 8,4 C 7,8 C 92 % 996,7 hPa 0,8 l/m 0,00 h 0,87 h 62 W/m 30,1 km/h (5 Bft) 97,68 %
07.11.2019 12:00 9,3 C 7,8 C 7,3 C 95 % 996,1 hPa 1,2 l/m 0,00 h 0,93 h 40 W/m 26,6 km/h (4 Bft) 97,90 %
07.11.2019 13:00 9,2 C 8,3 C 7,8 C 97 % 996,0 hPa 0,0 l/m 0,00 h 0,10 h 65 W/m 25,0 km/h (4 Bft) 94,53 %
07.11.2019 14:00 9,3 C 8,3 C 7,7 C 93 % 996,0 hPa 0,0 l/m 0,00 h 0,22 h 62 W/m 23,7 km/h (4 Bft) 98,84 %
07.11.2019 15:00 9,9 C 9,3 C 8,8 C 89 % 996,7 hPa 0,0 l/m 0,13 h 0,00 h 55 W/m 24,1 km/h (4 Bft) 97,01 %
07.11.2019 16:00 9,8 C 8,6 C 8,0 C 86 % 997,9 hPa 0,2 l/m 0,00 h 0,20 h 16 W/m 16,2 km/h (3 Bft) 97,29 %
07.11.2019 17:00 8,2 C 5,9 C 5,6 C 90 % 999,2 hPa 0,2 l/m 0,00 h 0,43 h 0 W/m 22,3 km/h (4 Bft) 99,93 %
07.11.2019 18:00 6,9 C 5,5 C 5,0 C 93 % 1000,4 hPa 0,0 l/m 0,00 h 0,00 h 0 W/m 16,8 km/h (3 Bft) 95,61 %
07.11.2019 19:00 6,5 C 5,6 C 5,0 C 94 % 1001,1 hPa 0,0 l/m 0,00 h 0,00 h 0 W/m 17,2 km/h (3 Bft) 97,92 %
07.11.2019 20:00 6,4 C 5,7 C 4,6 C 94 % 1001,8 hPa 0,0 l/m 0,00 h 0,00 h 0 W/m 13,7 km/h (3 Bft) 99,57 %
07.11.2019 21:00 6,1 C 5,3 C 4,2 C 93 % 1002,8 hPa 0,0 l/m 0,00 h 0,00 h 0 W/m 11,8 km/h (2 Bft) 96,23 %
07.11.2019 22:00 5,9 C 5,0 C 4,0 C 93 % 1003,3 hPa 0,0 l/m 0,00 h 0,00 h 0 W/m 11,0 km/h (2 Bft) 97,41 %
07.11.2019 23:00 5,4 C 4,3 C 3,4 C 93 % 1003,6 hPa 0,0 l/m 0,00 h 0,00 h 0 W/m 8,6 km/h (2 Bft) 96,53 %
08.11.2019 00:00 4,9 C 4,0 C 3,3 C 94 % 1003,7 hPa 0,0 l/m 0,00 h 0,00 h 0 W/m 6,0 km/h (2 Bft) 97,34 %
08.11.2019 01:00 4,4 C 3,0 C 2,6 C 94 % 1003,8 hPa 0,0 l/m 0,00 h 0,00 h 0 W/m 8,9 km/h (2 Bft) 98,36 %
08.11.2019 02:00 3,8 C 3,1 C 2,7 C 95 % 1004,2 hPa 0,0 l/m 0,00 h 0,00 h 0 W/m 14,8 km/h (3 Bft) 96,58 %
08.11.2019 03:00 3,8 C 3,1 C 2,7 C 96 % 1004,4 hPa 0,0 l/m 0,00 h 0,00 h 0 W/m 12,7 km/h (3 Bft) 96,39 %
08.11.2019 04:00 3,5 C 2,4 C 2,1 C 96 % 1004,6 hPa 0,0 l/m 0,00 h 0,00 h 0 W/m 5,1 km/h (1 Bft) 96,29 %
08.11.2019 05:00 3,2 C 2,4 C 2,2 C 96 % 1004,8 hPa 0,2 l/m 0,00 h 0,00 h 0 W/m 8,9 km/h (2 Bft) 98,04 %
08.11.2019 06:00 3,4 C 2,8 C 2,2 C 97 % 1005,2 hPa 0,0 l/m 0,00 h 0,03 h 0 W/m 7,2 km/h (2 Bft) 96,20 %
08.11.2019 07:00 3,3 C 2,3 C 1,8 C 97 % 1005,7 hPa 0,0 l/m 0,00 h 0,00 h 8 W/m 2,1 km/h (1 Bft) 96,27 %
08.11.2019 08:00 3,2 C 3,0 C 2,5 C 98 % 1006,3 hPa 0,0 l/m 0,00 h 0,00 h 26 W/m 2,9 km/h (1 Bft) 98,23 %
08.11.2019 09:00 3,9 C 4,4 C 3,5 C 98 % 1006,5 hPa 0,0 l/m 0,00 h 0,00 h 62 W/m 5,3 km/h (1 Bft) 96,81 %
08.11.2019 10:00 5,0 C 6,4 C 5,0 C 98 % 1006,7 hPa 0,0 l/m 0,20 h 0,00 h 127 W/m 12,7 km/h (3 Bft) 97,44 %
08.11.2019 11:00 6,4 C 10,0 C 6,0 C 98 % 1006,9 hPa 0,0 l/m 0,70 h 0,00 h 264 W/m 11,5 km/h (2 Bft) 98,36 %
08.11.2019 12:00 8,2 C 13,3 C 7,6 C 91 % 1006,4 hPa 0,0 l/m 0,97 h 0,00 h 372 W/m 9,9 km/h (2 Bft) 97,94 %
08.11.2019 13:00 9,8 C 14,6 C 8,1 C 83 % 1006,2 hPa 0,0 l/m 1,00 h 0,00 h 376 W/m 10,6 km/h (2 Bft) 98,22 %
08.11.2019 14:00 10,6 C 15,1 C 8,1 C 81 % 1006,3 hPa 0,0 l/m 1,00 h 0,00 h 295 W/m 5,7 km/h (1 Bft) 96,71 %
08.11.2019 15:00 10,3 C 9,7 C 7,8 C 80 % 1006,5 hPa 0,0 l/m 0,67 h 0,00 h 105 W/m 4,9 km/h (1 Bft) 97,06 %
08.11.2019 16:00 9,1 C 7,2 C 5,9 C 83 % 1007,0 hPa 0,0 l/m 0,07 h 0,00 h 23 W/m 0,9 km/h (0 Bft) 97,29 %
08.11.2019 17:00 7,3 C 4,8 C 3,9 C 88 % 1007,2 hPa 0,0 l/m 0,00 h 0,00 h 2 W/m 0,0 km/h (0 Bft) 96,66 %
08.11.2019 18:00 5,8 C 3,6 C 3,0 C 91 % 1007,6 hPa 0,0 l/m 0,00 h 0,00 h 0 W/m 0,0 km/h (0 Bft) 96,54 %
08.11.2019 19:00 4,6 C 2,6 C 2,1 C 92 % 1007,9 hPa 0,0 l/m 0,00 h 0,00 h 0 W/m 0,1 km/h (0 Bft) 99,43 %
08.11.2019 20:00 3,7 C 2,2 C 1,7 C 92 % 1008,2 hPa 0,0 l/m 0,00 h 0,00 h 0 W/m 0,1 km/h (0 Bft) 96,87 %
08.11.2019 21:00 3,2 C 1,6 C 1,2 C 93 % 1008,5 hPa 0,0 l/m 0,00 h 0,00 h 0 W/m 0,5 km/h (0 Bft) 95,52 %
08.11.2019 22:00 2,9 C 1,8 C 1,1 C 94 % 1008,5 hPa 0,0 l/m 0,00 h 0,00 h 0 W/m 0,4 km/h (0 Bft) 96,42 %
08.11.2019 23:00 2,7 C 1,2 C 0,7 C 94 % 1008,6 hPa 0,0 l/m 0,00 h 0,00 h 0 W/m 0,0 km/h (0 Bft) 98,64 %
09.11.2019 00:00 2,2 C 0,7 C 0,2 C 95 % 1008,7 hPa 0,0 l/m 0,00 h 0,00 h 0 W/m 0,1 km/h (0 Bft) 96,37 %
09.11.2019 01:00 1,9 C 0,5 C 0,1 C 95 % 1008,7 hPa 0,0 l/m 0,00 h 0,00 h 0 W/m 0,5 km/h (0 Bft) 94,81 %
09.11.2019 02:00 1,7 C 0,4 C 0,0 C 96 % 1008,9 hPa 0,0 l/m 0,00 h 0,00 h 0 W/m 2,5 km/h (1 Bft) 99,14 %
09.11.2019 03:00 2,2 C 1,2 C 1,1 C 97 % 1008,8 hPa 0,0 l/m 0,00 h 0,00 h 0 W/m 3,7 km/h (1 Bft) 96,19 %
09.11.2019 04:00 2,6 C 1,9 C 1,5 C 98 % 1008,8 hPa 0,2 l/m 0,00 h 0,17 h 0 W/m 3,0 km/h (1 Bft) 98,93 %
09.11.2019 05:00 3,1 C 2,5 C 2,1 C 98 % 1008,7 hPa 0,0 l/m 0,00 h 0,00 h 0 W/m 7,0 km/h (2 Bft) 96,99 %
09.11.2019 06:00 3,6 C 3,1 C 2,7 C 99 % 1008,6 hPa 0,0 l/m 0,00 h 0,00 h 0 W/m 5,7 km/h (1 Bft) 97,41 %
09.11.2019 07:00 4,4 C 4,0 C 3,6 C 99 % 1008,8 hPa 0,0 l/m 0,00 h 0,00 h 5 W/m 9,7 km/h (2 Bft) 99,36 %
09.11.2019 08:00 4,8 C 4,4 C 3,9 C 99 % 1009,0 hPa 0,0 l/m 0,00 h 0,00 h 11 W/m 10,7 km/h (2 Bft) 94,37 %
09.11.2019 09:00 5,2 C 5,0 C 4,7 C 99 % 1009,0 hPa 0,0 l/m 0,00 h 0,00 h 33 W/m 14,9 km/h (3 Bft) 98,88 %
09.11.2019 10:00 5,8 C 6,2 C 5,6 C 99 % 1009,0 hPa 0,0 l/m 0,03 h 0,00 h 87 W/m 15,0 km/h (3 Bft) 99,15 %
09.11.2019 11:00 6,5 C 6,8 C 6,1 C 98 % 1009,0 hPa 0,0 l/m 0,03 h 0,00 h 81 W/m 18,2 km/h (3 Bft) 95,31 %
09.11.2019 12:00 7,3 C 7,5 C 7,0 C 93 % 1008,6 hPa 0,0 l/m 0,00 h 0,00 h 119 W/m 18,9 km/h (3 Bft) 98,73 %
09.11.2019 13:00 7,9 C 8,8 C 7,2 C 89 % 1008,4 hPa 0,0 l/m 0,43 h 0,00 h 180 W/m 19,4 km/h (3 Bft) 97,72 %
09.11.2019 14:00 8,1 C 8,6 C 7,2 C 86 % 1008,2 hPa 0,0 l/m 0,37 h 0,00 h 141 W/m 19,8 km/h (4 Bft) 95,77 %
09.11.2019 15:00 8,1 C 7,7 C 6,9 C 82 % 1008,2 hPa 0,0 l/m 0,20 h 0,00 h 75 W/m 16,8 km/h (3 Bft) 98,44 %
09.11.2019 16:00 7,3 C 6,3 C 5,7 C 82 % 1008,3 hPa 0,0 l/m 0,00 h 0,00 h 20 W/m 16,6 km/h (3 Bft) 96,55 %
09.11.2019 17:00 6,3 C 4,8 C 4,2 C 84 % 1008,4 hPa 0,0 l/m 0,00 h 0,00 h 0 W/m 6,4 km/h (2 Bft) 97,21 %
09.11.2019 18:00 5,3 C 3,6 C 2,2 C 87 % 1008,5 hPa 0,0 l/m 0,00 h 0,00 h 0 W/m 2,0 km/h (1 Bft) 96,93 %
09.11.2019 19:00 4,3 C 3,1 C 2,4 C 90 % 1008,4 hPa 0,0 l/m 0,00 h 0,00 h 0 W/m 4,5 km/h (1 Bft) 96,17 %
09.11.2019 20:00 3,6 C 2,4 C 2,1 C 92 % 1008,3 hPa 0,0 l/m 0,00 h 0,00 h 0 W/m 2,3 km/h (1 Bft) 97,80 %
09.11.2019 21:00 3,1 C 2,0 C 1,3 C 93 % 1008,2 hPa 0,0 l/m 0,00 h 0,00 h 0 W/m 0,9 km/h (0 Bft) 98,65 %
09.11.2019 22:00 2,5 C 1,6 C 1,1 C 93 % 1008,2 hPa 0,0 l/m 0,00 h 0,00 h 0 W/m 1,4 km/h (1 Bft) 93,90 %
09.11.2019 23:00 2,0 C 0,5 C 0,3 C 94 % 1008,4 hPa 0,0 l/m 0,00 h 0,00 h 0 W/m 1,6 km/h (1 Bft) 96,73 %
10.11.2019 00:00 1,4 C 0,5 C 0,0 C 95 % 1008,7 hPa 0,0 l/m 0,00 h 0,00 h 0 W/m 3,0 km/h (1 Bft) 97,88 %
10.11.2019 01:00 1,6 C 1,0 C 0,6 C 96 % 1008,9 hPa 0,0 l/m 0,00 h 0,00 h 0 W/m 5,7 km/h (1 Bft) 96,30 %
10.11.2019 02:00 1,3 C -0,4 C -0,7 C 96 % 1009,2 hPa 0,0 l/m 0,00 h 0,00 h 0 W/m 0,4 km/h (0 Bft) 97,05 %
10.11.2019 03:00 0,4 C -1,3 C -1,7 C 96 % 1009,4 hPa 0,0 l/m 0,00 h 0,00 h 0 W/m 0,3 km/h (0 Bft) 96,16 %
10.11.2019 04:00 -0,1 C -1,7 C -1,9 C 96 % 1009,7 hPa 0,0 l/m 0,00 h 0,00 h 0 W/m 0,0 km/h (0 Bft) 97,71 %
10.11.2019 05:00 -0,6 C -2,0 C -2,2 C 96 % 1010,1 hPa 0,0 l/m 0,00 h 0,00 h 0 W/m 0,0 km/h (0 Bft) 97,86 %
10.11.2019 06:00 -1,0 C -2,1 C -2,4 C 96 % 1010,6 hPa 0,0 l/m 0,00 h 0,00 h 0 W/m 0,2 km/h (0 Bft) 99,48 %
10.11.2019 07:00 -0,1 C -0,7 C -0,9 C 97 % 1011,5 hPa 0,0 l/m 0,00 h 0,00 h 7 W/m 2,6 km/h (1 Bft) 94,02 %
10.11.2019 08:00 0,5 C -0,3 C -0,4 C 97 % 1012,1 hPa 0,0 l/m 0,00 h 0,00 h 23 W/m 3,7 km/h (1 Bft) 98,93 %
10.11.2019 09:00 1,5 C 2,2 C 1,2 C 98 % 1012,8 hPa 0,2 l/m 0,83 h 0,00 h 160 W/m 4,6 km/h (1 Bft) 98,95 %
10.11.2019 10:00 3,0 C 4,4 C 2,7 C 99 % 1013,3 hPa 0,0 l/m 0,60 h 0,00 h 193 W/m 5,7 km/h (1 Bft) 97,29 %
10.11.2019 11:00 4,9 C 10,2 C 4,3 C 99 % 1013,5 hPa 0,0 l/m 0,90 h 0,00 h 342 W/m 11,9 km/h (2 Bft) 94,75 %
10.11.2019 12:00 7,3 C 13,2 C 6,4 C 91 % 1013,6 hPa 0,0 l/m 1,00 h 0,00 h 406 W/m 11,4 km/h (2 Bft) 96,09 %
10.11.2019 13:00 9,1 C 14,2 C 7,1 C 82 % 1013,6 hPa 0,0 l/m 1,00 h 0,00 h 374 W/m 6,6 km/h (2 Bft) 95,58 %
10.11.2019 14:00 9,8 C 14,2 C 6,5 C 79 % 1013,7 hPa 0,0 l/m 1,00 h 0,00 h 293 W/m 2,5 km/h (1 Bft) 99,79 %
10.11.2019 15:00 9,0 C 7,6 C 5,4 C 80 % 1013,9 hPa 0,0 l/m 0,03 h 0,00 h 51 W/m 1,1 km/h (0 Bft) 95,87 %
10.11.2019 16:00 7,4 C 5,1 C 3,4 C 84 % 1014,5 hPa 0,0 l/m 0,00 h 0,00 h 17 W/m 0,0 km/h (0 Bft) 97,65 %
10.11.2019 17:00 5,4 C 3,2 C 1,9 C 88 % 1015,2 hPa 0,0 l/m 0,00 h 0,00 h 0 W/m 0,6 km/h (0 Bft) 96,58 %
10.11.2019 18:00 3,8 C 1,5 C 0,7 C 90 % 1015,4 hPa 0,0 l/m 0,00 h 0,00 h 0 W/m 0,0 km/h (0 Bft) 98,01 %
10.11.2019 19:00 2,5 C 0,5 C -0,1 C 91 % 1015,7 hPa 0,0 l/m 0,00 h 0,00 h 0 W/m 0,0 km/h (0 Bft) 95,32 %
10.11.2019 20:00 2,1 C 0,9 C 0,5 C 93 % 1015,7 hPa 0,0 l/m 0,00 h 0,00 h 0 W/m 2,9 km/h (1 Bft) 97,50 %
10.11.2019 21:00 2,0 C 0,7 C 0,7 C 95 % 1015,1 hPa 0,0 l/m 0,00 h 0,00 h 0 W/m 12,8 km/h (3 Bft) 95,82 %
10.11.2019 22:00 1,8 C 1,1 C 0,8 C 97 % 1015,2 hPa 0,0 l/m 0,00 h 0,00 h 0 W/m 17,7 km/h (3 Bft) 95,94 %
10.11.2019 23:00 2,3 C 1,7 C 1,3 C 98 % 1015,0 hPa 0,0 l/m 0,00 h 0,00 h 0 W/m 17,2 km/h (3 Bft) 99,36 %
Min-Datum _ 10.11.19 10.11.19 10.11.19 10.11.19 04.11.19 - - - - 04.11.19 05.11.19
_ Min-Zeit 06:36 06:12 06:00 14:32 00:00 - - - - 01:22 08:06
Minimum _ -1,2 C -2,8 C -2,8 C 78 % 987,1 hPa - - - - 0,0 km/h (0 Bft) 41,18 %
Max-Datum _ 04.11.19 08.11.19 04.11.19 06.11.19 10.11.19 04.11.19 08.11.19 07.11.19 08.11.19 07.11.19 04.11.19
_ Max-Zeit 12:48 14:16 11:10 08:12 19:34 14:00 12:08 14:53 11:32 11:10 00:00
Maximum _ 12,2 C 16,1 C 11,1 C 100 % 1015,9 hPa 2,2 l/m 0,07 h 0,08 h 442 W/m 51,5 km/h
O-SO (7 Bft)
100,00 %
Durchschnitt _ 6,9 C 6,3 C 5,5 C 95 % 1002,1 hPa #11,8 l/m #13:06 h #15:49 h 96 W/m 7,1 km/h (2 Bft) 97,24 %
© 2019 W. Hausmann